Bassett, Minnesota
Current Conditions -  °F | °C
As of 6:54 PM on Wednesday 22 Oct 2014 (Local Time) from KTWM Reporting Station
Scattered Clouds Scattered Clouds  
Wind Chill: 50°   Ceiling: Unl
Heat Index: 50°   Visibility: 10mi
Dew Point: 30°   Wind: 5mph
Humidity: 47%   Direction: 70°ENE
Pressure: 30.06"   Gusts: NA
Location:  47.3998°N, 91.9141°W
Report Text: KTWM 222354Z AUTO 07004KT 10SM SCT035 SCT070 10/M01 A3006 RMK AO2
Loading
Personal Weather Stations






























Interactive Weather Map
Tropical Storm Tracking
New forecast layout! Learn more

10-Day Weather Forecast

Advertisements
Track Severe Weather on mobile